Time;durP1;ratioP1;P1;durP2;ratioP2;P2;SDS_P1;SDS_P2;PMS_P1;PMS_P2;Temp;Humidity;BMP_temperature;BMP_pressure;BME280_temperature;BME280_humidity;BME280_pressure;Samples;Min_cycle;Max_cycle;Signal;HPM_P1;HPM_P2
2021/09/19 00:00:27;;;;;;;4.60;3.72;;;12.50;82.10;;;;;;5051367;28;20185;-63
2021/09/19 00:02:54;;;;;;;4.00;3.17;;;12.50;81.90;;;;;;5053844;28;20280;-63
2021/09/19 00:05:21;;;;;;;5.03;3.70;;;12.40;81.40;;;;;;5054706;28;20297;-64
2021/09/19 00:07:50;;;;;;;4.50;3.85;;;12.40;82.60;;;;;;5055568;28;20236;-64
2021/09/19 00:10:17;;;;;;;3.90;3.22;;;12.40;83.30;;;;;;5050883;28;20179;-63
2021/09/19 00:12:45;;;;;;;5.55;3.60;;;12.30;83.90;;;;;;5035813;28;20191;-63
2021/09/19 00:15:16;;;;;;;5.47;4.20;;;12.20;84.00;;;;;;5037593;28;20191;-64
2021/09/19 00:17:43;;;;;;;11.45;4.03;;;12.20;84.30;;;;;;5055568;28;20201;-63
2021/09/19 00:20:12;;;;;;;4.70;3.33;;;12.20;84.40;;;;;;5053256;28;20261;-64
2021/09/19 00:22:40;;;;;;;3.30;2.80;;;12.10;84.40;;;;;;5035647;28;20195;-63
2021/09/19 00:25:11;;;;;;;3.90;2.95;;;12.20;84.30;;;;;;5035530;28;20219;-65
2021/09/19 00:27:39;;;;;;;3.25;2.38;;;12.20;83.50;;;;;;5035404;28;20249;-64
2021/09/19 00:30:08;;;;;;;3.70;2.75;;;12.10;82.10;;;;;;5035618;28;20202;-63
2021/09/19 00:32:36;;;;;;;4.22;2.90;;;12.10;82.20;;;;;;5055443;28;20269;-63
2021/09/19 00:35:03;;;;;;;3.67;3.15;;;12.00;82.30;;;;;;5054695;28;20205;-64
2021/09/19 00:37:31;;;;;;;4.28;3.55;;;12.00;83.10;;;;;;5036150;28;20191;-63
2021/09/19 00:39:58;;;;;;;4.10;3.42;;;11.90;83.60;;;;;;5043588;28;20264;-63
2021/09/19 00:42:27;;;;;;;11.30;3.83;;;11.90;83.10;;;;;;5054986;28;20722;-63
2021/09/19 00:44:59;;;;;;;5.68;3.40;;;11.90;84.00;;;;;;5047051;28;20219;-64
2021/09/19 00:47:26;;;;;;;3.28;2.95;;;11.80;82.60;;;;;;5035105;28;20218;-64
2021/09/19 00:49:54;;;;;;;3.90;3.20;;;11.80;82.30;;;;;;5034578;28;20601;-64
2021/09/19 00:52:22;;;;;;;8.23;4.70;;;11.80;83.00;;;;;;5035173;28;20191;-63
2021/09/19 00:54:50;;;;;;;4.85;4.03;;;11.70;83.70;;;;;;5040134;28;20218;-65
2021/09/19 00:57:23;;;;;;;6.97;4.05;;;11.70;84.70;;;;;;5054878;28;20213;-63
2021/09/19 00:59:53;;;;;;;5.25;3.75;;;11.70;85.20;;;;;;5039964;28;20274;-63
2021/09/19 01:02:21;;;;;;;5.05;3.58;;;11.70;85.70;;;;;;5034945;28;20241;-63
2021/09/19 01:04:49;;;;;;;6.45;3.78;;;11.70;85.40;;;;;;5048000;28;20207;-64
2021/09/19 01:07:17;;;;;;;3.95;3.55;;;11.70;85.00;;;;;;5054721;28;20187;-64
2021/09/19 01:09:44;;;;;;;7.07;4.13;;;11.70;85.10;;;;;;5042038;28;20195;-64
2021/09/19 01:12:12;;;;;;;5.90;4.53;;;11.70;85.00;;;;;;5034599;28;20194;-63
2021/09/19 01:14:41;;;;;;;4.80;3.67;;;11.70;85.00;;;;;;5044486;28;20201;-64
2021/09/19 01:17:10;;;;;;;4.43;3.70;;;11.60;84.40;;;;;;5054747;28;20601;-63
2021/09/19 01:19:38;;;;;;;4.57;3.38;;;11.60;84.50;;;;;;5043845;28;20235;-64
2021/09/19 01:22:06;;;;;;;3.92;3.53;;;11.60;84.50;;;;;;5034593;28;20218;-63
2021/09/19 01:24:36;;;;;;;5.10;3.10;;;11.60;84.80;;;;;;5035220;28;20191;-64
2021/09/19 01:27:04;;;;;;;4.55;3.53;;;11.60;84.80;;;;;;5034409;28;20903;-63
2021/09/19 01:29:32;;;;;;;4.82;4.20;;;11.50;84.50;;;;;;5044098;28;20240;-63
2021/09/19 01:31:59;;;;;;;5.32;3.80;;;11.50;84.70;;;;;;5053993;28;20194;-63
2021/09/19 01:34:27;;;;;;;3.90;3.20;;;11.60;84.30;;;;;;5045190;28;20198;-64
2021/09/19 01:36:55;;;;;;;4.50;3.50;;;11.50;84.40;;;;;;5049371;28;20186;-64
2021/09/19 01:39:22;;;;;;;7.22;4.00;;;11.50;84.80;;;;;;5046416;28;20280;-63
2021/09/19 01:41:51;;;;;;;4.05;3.63;;;11.50;84.80;;;;;;5034101;28;20199;-66
2021/09/19 01:44:19;;;;;;;4.53;3.70;;;11.50;84.50;;;;;;5039849;28;20183;-63
2021/09/19 01:46:46;;;;;;;5.53;3.55;;;11.50;83.50;;;;;;5053854;28;20223;-63
2021/09/19 01:49:13;;;;;;;4.68;4.28;;;11.50;82.60;;;;;;5048571;28;20272;-63
2021/09/19 01:51:40;;;;;;;3.92;3.25;;;11.40;83.70;;;;;;5035678;28;20257;-64
2021/09/19 01:54:08;;;;;;;4.25;3.40;;;11.30;84.80;;;;;;5053892;28;20645;-63
2021/09/19 01:56:35;;;;;;;4.18;3.60;;;11.30;85.60;;;;;;5046323;28;20179;-64
2021/09/19 01:59:04;;;;;;;3.80;3.25;;;11.20;86.00;;;;;;5035100;28;20183;-63
2021/09/19 02:01:32;;;;;;;5.38;3.70;;;11.20;86.60;;;;;;5033714;28;20195;-63
2021/09/19 02:03:59;;;;;;;3.83;3.10;;;11.20;86.20;;;;;;5043826;28;20182;-65
2021/09/19 02:06:26;;;;;;;5.60;3.58;;;11.20;85.70;;;;;;5053086;28;20222;-64
2021/09/19 02:08:54;;;;;;;5.18;4.05;;;11.10;85.30;;;;;;5044048;28;20551;-64
2021/09/19 02:11:22;;;;;;;5.65;3.80;;;11.10;85.00;;;;;;5033523;28;20190;-64
2021/09/19 02:13:51;;;;;;;3.78;3.20;;;11.00;84.90;;;;;;5041265;28;20186;-64
2021/09/19 02:16:22;;;;;;;5.70;3.65;;;11.00;85.60;;;;;;5053185;28;20668;-64
2021/09/19 02:18:50;;;;;;;4.95;4.22;;;11.00;86.20;;;;;;5045211;28;20187;-64
2021/09/19 02:21:18;;;;;;;4.30;3.60;;;11.00;86.40;;;;;;5033081;28;20187;-64
2021/09/19 02:23:45;;;;;;;4.15;3.75;;;10.90;86.90;;;;;;5039095;28;20277;-64
2021/09/19 02:26:13;;;;;;;5.82;3.70;;;10.90;87.60;;;;;;5051638;28;20703;-64
2021/09/19 02:28:40;;;;;;;6.90;3.65;;;10.90;87.50;;;;;;5047457;28;20214;-65
2021/09/19 02:31:07;;;;;;;6.10;3.95;;;11.00;87.50;;;;;;5033295;28;20287;-64
2021/09/19 02:33:36;;;;;;;4.57;3.90;;;11.00;86.80;;;;;;5036525;28;20189;-64
2021/09/19 02:36:04;;;;;;;4.15;3.40;;;11.00;86.70;;;;;;5052898;28;20653;-64
2021/09/19 02:38:32;;;;;;;5.13;3.42;;;11.00;87.20;;;;;;5050306;28;20539;-64
2021/09/19 02:40:59;;;;;;;4.40;3.38;;;10.90;86.70;;;;;;5032986;28;20191;-64
2021/09/19 02:43:27;;;;;;;4.05;3.25;;;10.90;87.10;;;;;;5033760;28;20194;-64
2021/09/19 02:45:54;;;;;;;5.28;3.55;;;11.00;86.60;;;;;;5052588;28;20310;-65
2021/09/19 02:48:21;;;;;;;4.20;2.83;;;10.90;85.20;;;;;;5052108;28;20198;-65
2021/09/19 02:50:50;;;;;;;4.85;3.17;;;10.90;85.10;;;;;;5051607;28;20183;-64
2021/09/19 02:53:17;;;;;;;4.07;3.08;;;10.90;85.00;;;;;;5052724;28;20264;-64
2021/09/19 02:55:45;;;;;;;3.92;3.15;;;10.90;84.30;;;;;;5032652;28;20183;-64
2021/09/19 02:58:12;;;;;;;5.05;3.50;;;10.90;84.60;;;;;;5032630;28;20266;-64
2021/09/19 03:00:40;;;;;;;5.78;3.95;;;10.90;84.70;;;;;;5050304;28;20186;-64
2021/09/19 03:03:07;;;;;;;3.92;3.20;;;10.80;85.20;;;;;;5049535;28;20596;-64
2021/09/19 03:05:34;;;;;;;4.55;3.10;;;10.80;85.60;;;;;;5032649;28;20211;-64
2021/09/19 03:08:04;;;;;;;3.35;2.67;;;10.80;84.60;;;;;;5033125;28;20249;-65
2021/09/19 03:10:31;;;;;;;4.15;2.58;;;10.70;83.70;;;;;;5052449;28;20559;-65
2021/09/19 03:12:58;;;;;;;6.57;3.25;;;10.70;84.40;;;;;;5046326;28;20650;-64
2021/09/19 03:15:25;;;;;;;5.55;3.83;;;10.70;84.60;;;;;;5032470;28;20194;-64
2021/09/19 03:17:52;;;;;;;5.40;3.75;;;10.70;84.90;;;;;;5044652;28;20269;-64
2021/09/19 03:20:20;;;;;;;4.65;3.05;;;10.70;85.50;;;;;;5051937;28;20722;-68
2021/09/19 03:22:47;;;;;;;4.10;3.08;;;10.70;85.60;;;;;;5040336;28;20187;-64
2021/09/19 03:25:16;;;;;;;3.30;2.45;;;10.70;84.90;;;;;;5032016;28;20604;-66
2021/09/19 03:27:44;;;;;;;4.18;3.58;;;10.70;85.00;;;;;;5049278;28;20653;-64
2021/09/19 03:30:16;;;;;;;2.60;2.20;;;10.70;84.50;;;;;;5052051;28;20248;-64
2021/09/19 03:32:45;;;;;;;3.42;2.58;;;10.80;83.90;;;;;;5035309;28;20194;-64
2021/09/19 03:35:13;;;;;;;6.07;3.10;;;10.80;83.70;;;;;;5032259;28;20195;-64
2021/09/19 03:37:41;;;;;;;4.38;2.78;;;10.70;83.20;;;;;;5047344;28;20194;-64
2021/09/19 03:40:11;;;;;;;3.28;2.80;;;10.70;83.00;;;;;;5052180;28;20712;-64
2021/09/19 03:42:54;;;;;;;4.35;2.75;;;10.60;83.40;;;;;;5036708;28;20238;-64
2021/09/19 03:45:28;;;;;;;4.50;3.22;;;10.60;83.80;;;;;;5042626;28;20182;-64
2021/09/19 03:47:57;;;;;;;4.00;3.10;;;10.70;84.40;;;;;;5052886;28;20194;-64
2021/09/19 03:50:26;;;;;;;3.17;2.85;;;10.70;84.00;;;;;;5041776;28;20270;-64
2021/09/19 03:52:53;;;;;;;2.88;2.33;;;10.70;84.10;;;;;;5031896;28;20198;-64
2021/09/19 03:55:22;;;;;;;3.20;2.88;;;10.60;82.60;;;;;;5042045;28;20645;-65
2021/09/19 03:57:51;;;;;;;3.03;2.45;;;10.50;82.90;;;;;;5052674;28;20190;-64
2021/09/19 04:00:19;;;;;;;3.20;2.30;;;10.60;83.70;;;;;;5043768;28;20213;-65
2021/09/19 04:02:47;;;;;;;2.85;2.55;;;10.50;83.50;;;;;;5032727;28;20205;-64
2021/09/19 04:05:14;;;;;;;5.35;3.08;;;10.50;83.70;;;;;;5039082;28;20194;-64
2021/09/19 04:07:42;;;;;;;7.05;3.38;;;10.50;84.00;;;;;;5052094;28;20648;-64
2021/09/19 04:10:11;;;;;;;5.80;4.22;;;10.50;84.20;;;;;;5050004;28;20328;-65
2021/09/19 04:12:38;;;;;;;5.50;3.88;;;10.60;85.50;;;;;;5052007;28;20607;-65
2021/09/19 04:15:10;;;;;;;4.43;3.42;;;10.60;86.70;;;;;;5047455;28;20187;-65
2021/09/19 04:17:38;;;;;;;5.30;3.70;;;10.60;87.10;;;;;;5032248;28;20198;-65
2021/09/19 04:20:09;;;;;;;7.45;4.43;;;10.60;88.00;;;;;;5035899;28;20301;-64
2021/09/19 04:22:37;;;;;;;11.13;4.25;;;10.60;88.40;;;;;;5052514;28;20191;-64
2021/09/19 04:25:06;;;;;;;13.63;5.25;;;10.60;88.00;;;;;;5048870;28;20191;-64
2021/09/19 04:27:33;;;;;;;11.05;5.35;;;10.50;89.00;;;;;;5032174;28;20237;-69
2021/09/19 04:30:01;;;;;;;29.38;6.05;;;10.50;89.90;;;;;;5034743;28;20190;-64
2021/09/19 04:32:29;;;;;;;21.83;5.85;;;10.50;89.90;;;;;;5051798;28;20625;-63
2021/09/19 04:34:56;;;;;;;33.88;5.90;;;10.50;90.00;;;;;;5050685;28;20240;-64
2021/09/19 04:37:24;;;;;;;19.38;4.80;;;10.50;89.70;;;;;;5031871;28;20195;-65
2021/09/19 04:39:55;;;;;;;20.25;4.85;;;10.50;89.70;;;;;;5052726;28;20191;-64
2021/09/19 04:42:23;;;;;;;4.65;3.60;;;10.50;89.10;;;;;;5051679;28;20645;-64
2021/09/19 04:44:51;;;;;;;13.70;4.60;;;10.50;89.00;;;;;;5050561;28;20195;-65
2021/09/19 04:47:18;;;;;;;13.18;4.22;;;10.50;89.50;;;;;;5051476;28;20693;-64
2021/09/19 04:49:47;;;;;;;6.95;4.13;;;10.50;88.40;;;;;;5036563;28;20191;-64
2021/09/19 04:52:15;;;;;;;28.17;4.70;;;10.50;88.10;;;;;;5035113;28;20202;-64
2021/09/19 04:54:42;;;;;;;7.43;3.80;;;10.40;88.30;;;;;;5036041;28;20272;-64
2021/09/19 04:57:09;;;;;;;7.32;3.75;;;10.40;88.40;;;;;;5035263;28;20195;-64
2021/09/19 04:59:37;;;;;;;7.68;3.53;;;10.30;88.70;;;;;;5050616;28;20724;-64
2021/09/19 05:02:05;;;;;;;12.95;3.95;;;10.30;89.00;;;;;;5054755;28;20225;-64
2021/09/19 05:04:33;;;;;;;12.55;5.03;;;10.40;88.90;;;;;;5053028;28;20198;-64
2021/09/19 05:07:01;;;;;;;7.15;4.00;;;10.40;88.90;;;;;;5054774;28;20667;-64
2021/09/19 05:09:29;;;;;;;6.68;4.47;;;10.40;89.40;;;;;;5038822;28;20202;-65
2021/09/19 05:11:56;;;;;;;5.05;4.05;;;10.40;89.60;;;;;;5051427;28;20271;-64
2021/09/19 05:14:23;;;;;;;6.55;4.70;;;10.40;89.70;;;;;;5040876;28;20191;-64
2021/09/19 05:16:51;;;;;;;6.75;5.65;;;10.50;89.70;;;;;;5034189;28;20816;-64
2021/09/19 05:19:18;;;;;;;7.15;5.22;;;10.50;90.00;;;;;;5034295;28;20237;-65
2021/09/19 05:21:46;;;;;;;10.38;4.93;;;10.50;90.10;;;;;;5034128;28;20196;-64
2021/09/19 05:24:16;;;;;;;9.35;6.57;;;10.60;90.20;;;;;;5035534;28;20194;-64
2021/09/19 05:26:43;;;;;;;10.30;5.90;;;10.60;90.10;;;;;;5034317;28;20222;-65
2021/09/19 05:29:13;;;;;;;8.20;5.78;;;10.70;89.80;;;;;;5034289;28;20191;-64
2021/09/19 05:31:41;;;;;;;6.82;5.35;;;10.70;89.80;;;;;;5034140;28;20680;-65
2021/09/19 05:34:08;;;;;;;16.45;7.03;;;10.70;90.10;;;;;;5034175;28;20191;-67
2021/09/19 05:36:36;;;;;;;57.17;8.40;;;10.80;90.20;;;;;;5034480;28;20184;-66
2021/09/19 05:39:04;;;;;;;9.85;6.20;;;10.70;90.00;;;;;;5035097;28;20187;-64
2021/09/19 05:41:33;;;;;;;15.65;6.60;;;10.60;90.20;;;;;;5036843;28;20202;-65
2021/09/19 05:44:01;;;;;;;26.27;7.30;;;10.60;90.10;;;;;;5033498;28;20194;-65
2021/09/19 05:46:28;;;;;;;40.72;6.47;;;10.50;90.80;;;;;;5035278;28;20235;-65
2021/09/19 05:48:56;;;;;;;11.18;6.40;;;10.50;91.30;;;;;;5051486;28;20210;-64
2021/09/19 05:51:26;;;;;;;12.93;6.82;;;10.50;91.80;;;;;;5050530;28;20202;-66
2021/09/19 05:53:58;;;;;;;37.40;7.18;;;10.60;91.90;;;;;;5051007;28;20227;-65
2021/09/19 05:56:25;;;;;;;20.70;6.60;;;10.70;91.80;;;;;;5034330;28;20238;-65
2021/09/19 05:58:56;;;;;;;10.70;5.80;;;10.60;92.30;;;;;;5035775;28;20293;-64
2021/09/19 06:01:23;;;;;;;9.15;6.82;;;10.50;92.50;;;;;;5033005;28;20193;-64
2021/09/19 06:03:51;;;;;;;9.93;6.20;;;10.50;92.80;;;;;;5033245;28;20198;-64
2021/09/19 06:06:23;;;;;;;25.17;5.65;;;10.70;93.10;;;;;;5033238;28;21269;-65
2021/09/19 06:08:51;;;;;;;27.00;6.63;;;10.80;93.00;;;;;;5050177;28;20194;-64
2021/09/19 06:11:18;;;;;;;17.50;6.75;;;10.90;92.70;;;;;;5033052;28;20191;-65
2021/09/19 06:13:46;;;;;;;21.85;6.65;;;11.00;92.90;;;;;;5049906;28;20540;-65
2021/09/19 06:16:18;;;;;;;11.82;5.82;;;11.10;93.00;;;;;;5050676;28;20286;-65
2021/09/19 06:18:47;;;;;;;31.85;6.72;;;11.20;93.10;;;;;;5048726;28;20186;-65
2021/09/19 06:21:15;;;;;;;11.60;6.32;;;11.30;92.40;;;;;;5050551;28;20709;-66
2021/09/19 06:23:42;;;;;;;9.35;5.60;;;11.30;92.70;;;;;;5034733;28;20194;-66
2021/09/19 06:26:10;;;;;;;8.10;5.55;;;11.50;92.70;;;;;;5033090;28;20218;-65
2021/09/19 06:28:43;;;;;;;7.03;4.88;;;11.60;92.90;;;;;;5045515;28;20197;-66
2021/09/19 06:31:10;;;;;;;5.47;4.47;;;11.80;92.70;;;;;;5047629;28;20541;-64
2021/09/19 06:33:42;;;;;;;5.22;4.53;;;12.00;92.40;;;;;;5042351;28;20250;-65
2021/09/19 06:36:09;;;;;;;4.20;3.80;;;12.10;92.20;;;;;;5032082;28;20183;-65
2021/09/19 06:38:39;;;;;;;5.20;4.47;;;12.20;92.00;;;;;;5033926;28;20206;-66
2021/09/19 06:41:07;;;;;;;5.72;3.95;;;;;;;;;;5041467;28;20277;-66
2021/09/19 06:43:37;;;;;;;7.65;4.20;;;;;;;;;;5036459;28;20198;-65
2021/09/19 06:46:09;;;;;;;6.63;4.25;;;;;;;;;;5040498;28;20199;-64
2021/09/19 06:48:38;;;;;;;11.48;4.65;;;;;;;;;;5050562;28;20285;-66
2021/09/19 06:51:10;;;;;;;18.65;5.40;;;;;;;;;;5046028;28;20270;-65
2021/09/19 06:53:40;;;;;;;10.27;5.40;;;;;;;;;;5042442;28;20187;-66
2021/09/19 06:56:08;;;;;;;9.70;4.50;;;;;;;;;;5032136;28;20273;-65
2021/09/19 06:58:35;;;;;;;7.05;5.00;;;;;;;;;;5048344;28;20186;-65
2021/09/19 07:01:03;;;;;;;13.23;4.30;;;;;;;;;;5050116;28;20746;-65
2021/09/19 07:03:46;;;;;;;6.05;4.60;;;;;;;;;;5044878;28;20186;-67
2021/09/19 07:06:26;;;;;;;8.95;3.97;;;;;;;;;;5026807;28;20277;-65
2021/09/19 07:08:55;;;;;;;5.47;3.95;;;;;;;;;;5032097;28;20193;-66
2021/09/19 07:11:24;;;;;;;4.50;4.05;;;;;;;;;;5028506;28;20278;-68
2021/09/19 07:13:55;;;;;;;4.90;3.85;;;;;;;;;;5026217;28;20230;-66
2021/09/19 07:16:23;;;;;;;5.38;3.95;;;;;;;;;;5040035;28;20252;-65
2021/09/19 07:18:51;;;;;;;4.20;3.00;;;;;;;;;;5030518;28;20696;-65
2021/09/19 07:21:19;;;;;;;5.40;3.60;;;;;;;;;;5030790;28;20203;-65
2021/09/19 07:23:47;;;;;;;4.20;3.35;;;;;;;;;;5032069;28;20630;-65
2021/09/19 07:26:20;;;;;;;7.40;4.40;;;;;;;;;;5043338;28;20196;-65
2021/09/19 07:28:47;;;;;;;4.25;3.25;;;;;;;;;;5049506;28;20245;-66
2021/09/19 07:31:15;;;;;;;3.28;2.90;;;;;;;;;;5049164;28;20182;-65
2021/09/19 07:33:42;;;;;;;4.17;3.23;;;;;;;;;;5031899;28;20231;-66
2021/09/19 07:36:11;;;;;;;3.83;3.43;;;;;;;;;;5031836;28;20474;-66
2021/09/19 07:38:39;;;;;;;4.13;3.47;;;;;;;;;;5031624;28;20438;-65
2021/09/19 07:41:17;;;;;;;7.55;4.20;;;;;;;;;;5038223;28;20440;-66
2021/09/19 07:43:45;;;;;;;4.80;4.10;;;;;;;;;;5046635;28;20248;-66
2021/09/19 07:46:14;;;;;;;4.60;4.10;;;;;;;;;;5038479;28;20491;-66
2021/09/19 07:48:41;;;;;;;5.15;4.20;;;;;;;;;;5048656;28;20480;-65
2021/09/19 07:51:14;;;;;;;4.40;3.87;;;;;;;;;;5048830;28;20191;-65
2021/09/19 07:53:42;;;;;;;5.47;4.60;;;;;;;;;;5049161;28;20445;-66
2021/09/19 07:56:09;;;;;;;5.43;4.47;;;;;;;;;;5048217;28;20528;-66
2021/09/19 07:58:39;;;;;;;4.97;4.40;;;;;;;;;;5032072;28;21115;-67
2021/09/19 08:01:08;;;;;;;4.20;3.80;;;;;;;;;;5041104;28;20527;-65
2021/09/19 08:03:37;;;;;;;4.13;3.50;;;;;;;;;;5049872;28;20441;-66
2021/09/19 08:06:05;;;;;;;4.47;4.07;;;;;;;;;;5040726;28;20441;-65
2021/09/19 08:08:33;;;;;;;4.43;3.70;;;;;;;;;;5049333;28;20499;-65
2021/09/19 08:11:04;;;;;;;4.33;3.93;;;;;;;;;;5048610;28;20451;-65
2021/09/19 08:13:38;;;;;;;5.20;4.33;;;;;;;;;;5047981;28;20441;-66
2021/09/19 08:16:09;;;;;;;5.53;5.03;;;;;;;;;;5038009;28;20453;-65
2021/09/19 08:18:37;;;;;;;6.50;5.53;;;;;;;;;;5031512;28;20492;-66
2021/09/19 08:21:04;;;;;;;5.47;4.87;;;;;;;;;;5032180;28;20893;-65
2021/09/19 08:23:32;;;;;;;4.93;4.43;;;;;;;;;;5045954;28;20472;-66
2021/09/19 08:25:59;;;;;;;5.70;4.87;;;;;;;;;;5053614;28;20498;-67
2021/09/19 08:28:26;;;;;;;6.47;5.53;;;;;;;;;;5047854;28;20476;-66
2021/09/19 08:30:55;;;;;;;5.30;4.80;;;;;;;;;;5052730;28;20830;-67
2021/09/19 08:33:27;;;;;;;6.03;5.00;;;;;;;;;;5053396;28;20528;-65
2021/09/19 08:35:55;;;;;;;6.40;5.80;;;;;;;;;;5039200;28;20449;-69
2021/09/19 08:38:22;;;;;;;6.73;6.00;;;;;;;;;;5040282;28;20437;-65
2021/09/19 08:40:51;;;;;;;6.63;5.93;;;;;;;;;;5043315;28;20484;-70
2021/09/19 08:43:27;;;;;;;6.50;5.90;;;;;;;;;;5046130;28;20426;-67
2021/09/19 08:45:56;;;;;;;5.80;5.10;;;;;;;;;;5051985;28;20444;-66
2021/09/19 08:48:28;;;;;;;7.00;5.33;;;;;;;;;;5044084;28;20485;-65
2021/09/19 08:50:58;;;;;;;5.57;5.07;;;;;;;;;;5038301;28;20428;-65
2021/09/19 08:53:27;;;;;;;5.37;4.80;;;;;;;;;;5034363;28;20445;-65
2021/09/19 08:55:54;;;;;;;5.57;4.97;;;;;;;;;;5045667;28;20442;-65
2021/09/19 08:58:25;;;;;;;5.40;4.90;;;;;;;;;;5048053;28;20444;-65
2021/09/19 09:01:01;;;;;;;5.07;4.57;;;12.40;91.80;;;;;;5043160;28;20511;-65
2021/09/19 09:03:31;;;;;;;7.30;4.47;;;31.60;48.10;;;;;;5051979;28;20810;-66
2021/09/19 09:06:00;;;;;;;4.90;3.73;;;34.60;39.20;;;;;;5042031;28;20529;-67
2021/09/19 09:08:28;;;;;;;4.20;3.80;;;37.00;33.80;;;;;;5046369;28;20487;-64
2021/09/19 09:10:58;;;;;;;3.70;3.40;;;39.40;29.20;;;;;;5051091;28;20441;-64
2021/09/19 09:13:28;;;;;;;3.70;3.30;;;41.50;25.80;;;;;;5036632;28;20445;-64
2021/09/19 09:16:09;;;;;;;7.73;7.03;;;43.30;22.70;;;;;;5050817;28;20463;-65
2021/09/19 09:18:38;;;;;;;4.00;3.60;;;44.90;20.90;;;;;;5046283;28;20440;-65
2021/09/19 09:21:07;;;;;;;4.53;3.53;;;46.20;19.20;;;;;;5037523;28;20440;-67
2021/09/19 09:23:39;;;;;;;3.10;2.80;;;47.20;17.60;;;;;;5034215;28;20496;-65
2021/09/19 09:26:16;;;;;;;3.80;3.50;;;47.90;17.50;;;;;;5045728;28;20476;-66
2021/09/19 09:28:46;;;;;;;4.13;3.73;;;48.60;16.40;;;;;;5034142;28;20485;-65
2021/09/19 09:31:21;;;;;;;3.67;3.37;;;48.90;15.10;;;;;;5045862;28;20528;-66
2021/09/19 09:34:07;;;;;;;4.17;3.40;;;49.30;15.30;;;;;;5046883;28;20462;-66
2021/09/19 09:36:37;;;;;;;3.53;2.90;;;50.10;14.40;;;;;;5051332;28;20445;-65
2021/09/19 09:39:23;;;;;;;3.27;2.97;;;50.80;13.80;;;;;;5046324;28;20445;-66
2021/09/19 09:41:52;;;;;;;4.10;3.80;;;51.10;13.40;;;;;;5048300;28;20791;-67
2021/09/19 09:44:34;;;;;;;4.90;4.50;;;51.60;13.00;;;;;;5034066;28;20538;-66
2021/09/19 09:47:06;;;;;;;5.70;3.20;;;52.10;12.80;;;;;;5037493;28;20441;-66
2021/09/19 09:49:48;;;;;;;7.10;3.60;;;52.60;12.50;;;;;;5033998;28;20884;-66
2021/09/19 09:52:21;;;;;;;3.70;3.40;;;53.20;11.90;;;;;;5033734;28;20516;-66
2021/09/19 09:54:51;;;;;;;3.93;3.47;;;53.50;11.80;;;;;;5034292;28;20465;-66
2021/09/19 09:57:56;;;;;;;4.43;4.03;;;53.70;11.50;;;;;;5039317;28;20528;-66
2021/09/19 10:00:23;;;;;;;4.00;3.70;;;54.10;11.50;;;;;;5040735;28;20525;-66
2021/09/19 10:02:53;;;;;;;4.60;3.80;;;54.50;11.30;;;;;;5034058;28;20495;-66
2021/09/19 10:05:31;;;;;;;4.87;3.77;;;54.80;10.80;;;;;;5033948;28;20524;-66
2021/09/19 10:07:59;;;;;;;4.00;3.70;;;54.90;10.60;;;;;;5034043;28;20520;-66
2021/09/19 10:10:28;;;;;;;4.73;4.33;;;55.20;10.30;;;;;;5046382;28;20825;-66
2021/09/19 10:12:58;;;;;;;3.90;3.60;;;55.30;10.20;;;;;;5051025;28;20433;-67
2021/09/19 10:15:30;;;;;;;3.77;3.43;;;55.40;10.00;;;;;;5040954;28;20528;-67
2021/09/19 10:18:02;;;;;;;4.53;3.40;;;55.40;10.00;;;;;;5047628;28;20578;-66
2021/09/19 10:20:36;;;;;;;4.23;3.83;;;55.50;10.40;;;;;;5040204;28;20564;-66
2021/09/19 10:23:14;;;;;;;4.30;3.83;;;55.90;10.30;;;;;;5036095;28;20909;-66
2021/09/19 10:25:44;;;;;;;3.70;3.27;;;56.30;10.30;;;;;;5049763;28;20440;-66
2021/09/19 10:28:33;;;;;;;4.00;3.67;;;56.50;9.60;;;;;;5035975;28;20528;-66
2021/09/19 10:31:30;;;;;;;3.53;3.23;;;56.30;9.40;;;;;;5033241;28;20437;-66
2021/09/19 10:34:01;;;;;;;4.00;3.70;;;56.10;9.90;;;;;;5032980;28;20426;-66
2021/09/19 10:36:45;;;;;;;3.70;3.40;;;56.00;10.10;;;;;;5033745;28;20443;-66
2021/09/19 10:39:18;;;;;;;3.57;3.27;;;54.60;8.80;;;;;;5049341;28;20483;-67
2021/09/19 10:42:35;;;;;;;3.20;2.90;;;51.50;9.40;;;;;;5048712;28;20798;-65
2021/09/19 10:45:14;;;;;;;4.43;3.90;;;48.10;11.10;;;;;;4988750;28;20483;-66
2021/09/19 10:47:47;;;;;;;4.17;3.73;;;45.90;12.70;;;;;;5035195;28;20492;-65
2021/09/19 10:50:26;;;;;;;5.63;3.83;;;45.20;13.60;;;;;;5043679;28;20460;-65
2021/09/19 10:52:56;;;;;;;4.47;3.40;;;44.60;13.40;;;;;;5040020;28;20426;-66
2021/09/19 10:55:31;;;;;;;5.33;3.70;;;43.00;14.10;;;;;;5032538;28;20442;-65
2021/09/19 10:58:03;;;;;;;3.70;3.30;;;40.90;15.20;;;;;;5035657;28;20485;-66
2021/09/19 11:00:35;;;;;;;4.07;3.30;;;39.00;17.10;;;;;;5035815;28;20863;-65
2021/09/19 11:03:16;;;;;;;4.47;4.07;;;37.20;18.20;;;;;;5049582;28;20502;-64
2021/09/19 11:05:50;;;;;;;5.47;4.47;;;35.80;20.40;;;;;;5033327;28;20440;-64
2021/09/19 11:08:39;;;;;;;4.53;3.90;;;35.90;21.90;;;;;;5032233;28;20436;-65
2021/09/19 11:11:28;;;;;;;4.90;3.33;;;35.60;21.00;;;;;;5047744;28;20436;-64
2021/09/19 11:14:06;;;;;;;4.67;4.17;;;34.50;21.70;;;;;;5032406;28;20445;-64
2021/09/19 11:16:45;;;;;;;4.43;3.90;;;33.40;22.80;;;;;;5041391;28;20463;-64
2021/09/19 11:19:23;;;;;;;3.87;3.40;;;32.30;24.00;;;;;;5049570;28;20488;-64
2021/09/19 11:21:53;;;;;;;4.90;4.33;;;31.20;25.30;;;;;;5032693;28;20465;-64
2021/09/19 11:24:21;;;;;;;5.80;4.33;;;30.40;26.50;;;;;;5032093;28;20523;-66
2021/09/19 11:26:55;;;;;;;6.97;3.90;;;29.70;27.80;;;;;;5032081;28;20512;-66
2021/09/19 11:29:28;;;;;;;5.43;4.93;;;29.00;29.20;;;;;;5042516;28;20969;-65
2021/09/19 11:32:03;;;;;;;5.10;4.23;;;28.30;30.30;;;;;;5047378;28;20516;-66
2021/09/19 11:34:37;;;;;;;5.50;4.93;;;27.70;31.60;;;;;;5049481;28;20432;-66
2021/09/19 11:37:06;;;;;;;5.50;4.60;;;27.10;32.30;;;;;;5043612;28;20437;-66
2021/09/19 11:39:38;;;;;;;5.10;4.60;;;26.50;33.80;;;;;;5046106;28;21040;-66
2021/09/19 11:42:12;;;;;;;7.10;4.83;;;26.00;35.10;;;;;;5048233;28;20435;-65
2021/09/19 11:44:46;;;;;;;6.53;4.83;;;25.60;36.20;;;;;;5036329;28;20455;-66
2021/09/19 11:47:14;;;;;;;6.67;5.97;;;25.30;37.00;;;;;;5035386;28;20449;-67
2021/09/19 11:49:54;;;;;;;6.80;6.10;;;25.00;38.20;;;;;;5044091;28;20524;-66
2021/09/19 11:52:23;;;;;;;6.90;5.60;;;24.70;38.90;;;;;;5031545;28;20512;-65
2021/09/19 11:54:54;;;;;;;6.70;5.83;;;24.50;40.10;;;;;;5031995;28;20452;-65
2021/09/19 11:57:21;;;;;;;6.27;5.67;;;24.30;40.70;;;;;;5033087;28;20445;-66
2021/09/19 11:59:49;;;;;;;7.60;6.47;;;24.10;41.00;;;;;;5036624;28;20512;-65
2021/09/19 12:02:17;;;;;;;8.27;6.47;;;24.00;40.80;;;;;;5035704;28;20448;-66
2021/09/19 12:04:45;;;;;;;8.00;7.20;;;23.80;42.50;;;;;;5043217;28;20868;-65
2021/09/19 12:07:15;;;;;;;6.30;5.70;;;23.60;43.10;;;;;;5035503;28;20806;-67
2021/09/19 12:09:58;;;;;;;7.73;6.00;;;23.50;44.30;;;;;;5049621;28;20447;-65
2021/09/19 12:12:25;;;;;;;10.63;6.40;;;23.50;43.90;;;;;;5050123;28;20429;-66
2021/09/19 12:14:54;;;;;;;8.70;6.93;;;23.30;44.10;;;;;;5034181;28;20463;-65
2021/09/19 12:17:26;;;;;;;9.10;7.10;;;23.20;45.10;;;;;;5035874;28;20446;-65
2021/09/19 12:20:01;;;;;;;8.07;7.27;;;23.10;45.50;;;;;;5034154;28;20980;-66
2021/09/19 12:22:30;;;;;;;8.60;7.70;;;22.90;45.90;;;;;;5035016;28;20437;-65
2021/09/19 12:25:00;;;;;;;8.67;7.40;;;22.80;46.00;;;;;;5051803;28;20452;-65
2021/09/19 12:27:29;;;;;;;10.20;8.10;;;22.60;46.40;;;;;;5051229;28;20454;-65
2021/09/19 12:30:04;;;;;;;8.50;7.50;;;22.40;47.20;;;;;;5052005;28;20440;-65
2021/09/19 12:32:39;;;;;;;9.33;8.40;;;22.30;47.90;;;;;;5051877;28;20486;-65
2021/09/19 12:35:09;;;;;;;11.60;9.43;;;22.20;48.60;;;;;;5035348;28;20791;-65
2021/09/19 12:37:36;;;;;;;9.57;8.57;;;22.00;48.80;;;;;;5035150;28;20532;-65
2021/09/19 12:40:11;;;;;;;21.47;11.00;;;21.90;50.00;;;;;;5036692;28;20569;-66
2021/09/19 12:42:38;;;;;;;11.30;9.43;;;21.80;50.30;;;;;;5037160;28;20514;-65
2021/09/19 12:45:10;;;;;;;10.60;9.43;;;21.80;50.90;;;;;;5048244;28;20956;-66
2021/09/19 12:47:38;;;;;;;11.00;9.77;;;21.80;51.00;;;;;;5036352;28;20440;-65
2021/09/19 12:50:08;;;;;;;14.30;9.30;;;21.80;51.00;;;;;;5051248;28;20440;-65
2021/09/19 12:52:37;;;;;;;10.30;9.27;;;22.20;52.10;;;;;;5051101;28;20509;-66
2021/09/19 12:55:05;;;;;;;9.97;8.97;;;22.60;51.50;;;;;;5035258;28;20438;-66
2021/09/19 12:57:34;;;;;;;9.13;8.23;;;23.00;50.80;;;;;;5035034;28;20446;-65
2021/09/19 13:00:02;;;;;;;12.07;10.37;;;23.30;50.10;;;;;;5049544;28;20487;-65
2021/09/19 13:02:29;;;;;;;10.97;9.17;;;23.30;49.70;;;;;;5050647;28;20452;-64
2021/09/19 13:04:58;;;;;;;10.73;9.63;;;23.30;49.60;;;;;;5048294;28;20495;-65
2021/09/19 13:07:26;;;;;;;10.40;9.30;;;23.30;49.20;;;;;;5048010;28;20463;-65
2021/09/19 13:09:53;;;;;;;10.37;8.50;;;23.20;49.50;;;;;;5051270;28;20892;-65
2021/09/19 13:12:20;;;;;;;11.00;8.20;;;23.10;49.30;;;;;;5038215;28;20511;-65
2021/09/19 13:14:49;;;;;;;10.47;9.37;;;23.00;49.60;;;;;;5034563;28;20445;-65
2021/09/19 13:17:17;;;;;;;9.53;8.53;;;22.80;50.60;;;;;;5037176;28;20476;-65